sensor_id;sensor_type;location;lat;lon;timestamp;temperature;humidity
44166;DHT22;30476;53.468;9.826;2023-08-08T00:00:50;15.00;99.90
44166;DHT22;30476;53.468;9.826;2023-08-08T00:03:16;15.00;99.90
44166;DHT22;30476;53.468;9.826;2023-08-08T00:05:41;15.00;99.90
44166;DHT22;30476;53.468;9.826;2023-08-08T00:08:07;15.00;99.90
44166;DHT22;30476;53.468;9.826;2023-08-08T00:10:33;15.00;99.90
44166;DHT22;30476;53.468;9.826;2023-08-08T00:12:59;14.90;99.90
44166;DHT22;30476;53.468;9.826;2023-08-08T00:15:24;14.90;99.90
44166;DHT22;30476;53.468;9.826;2023-08-08T00:17:50;15.00;99.90
44166;DHT22;30476;53.468;9.826;2023-08-08T00:20:16;15.00;99.90
44166;DHT22;30476;53.468;9.826;2023-08-08T00:22:42;15.10;99.90
44166;DHT22;30476;53.468;9.826;2023-08-08T00:25:08;15.00;99.90
44166;DHT22;30476;53.468;9.826;2023-08-08T00:27:34;15.10;99.90
44166;DHT22;30476;53.468;9.826;2023-08-08T00:30:00;15.10;99.90
44166;DHT22;30476;53.468;9.826;2023-08-08T00:32:26;15.10;99.90
44166;DHT22;30476;53.468;9.826;2023-08-08T00:34:52;15.20;99.90
44166;DHT22;30476;53.468;9.826;2023-08-08T00:37:18;15.20;99.90
44166;DHT22;30476;53.468;9.826;2023-08-08T00:39:43;15.30;99.90
44166;DHT22;30476;53.468;9.826;2023-08-08T00:42:12;15.30;99.90
44166;DHT22;30476;53.468;9.826;2023-08-08T00:44:39;15.30;99.90
44166;DHT22;30476;53.468;9.826;2023-08-08T00:47:08;15.20;99.90
44166;DHT22;30476;53.468;9.826;2023-08-08T00:49:34;15.30;99.90
44166;DHT22;30476;53.468;9.826;2023-08-08T00:52:00;15.30;99.90
44166;DHT22;30476;53.468;9.826;2023-08-08T00:54:26;15.30;99.90
44166;DHT22;30476;53.468;9.826;2023-08-08T00:56:52;15.30;99.90
44166;DHT22;30476;53.468;9.826;2023-08-08T00:59:19;15.30;99.90
44166;DHT22;30476;53.468;9.826;2023-08-08T01:01:45;15.30;99.90
44166;DHT22;30476;53.468;9.826;2023-08-08T01:04:11;15.30;99.90
44166;DHT22;30476;53.468;9.826;2023-08-08T01:06:47;15.30;99.90
44166;DHT22;30476;53.468;9.826;2023-08-08T01:09:24;15.30;99.90
44166;DHT22;30476;53.468;9.826;2023-08-08T01:11:51;15.20;99.90
44166;DHT22;30476;53.468;9.826;2023-08-08T01:14:17;15.20;99.90
44166;DHT22;30476;53.468;9.826;2023-08-08T01:16:44;15.20;99.90
44166;DHT22;30476;53.468;9.826;2023-08-08T01:19:17;15.20;99.90
44166;DHT22;30476;53.468;9.826;2023-08-08T01:21:48;15.20;99.90
44166;DHT22;30476;53.468;9.826;2023-08-08T01:24:24;15.20;99.90
44166;DHT22;30476;53.468;9.826;2023-08-08T01:26:53;15.20;99.90
44166;DHT22;30476;53.468;9.826;2023-08-08T01:29:19;15.20;99.90
44166;DHT22;30476;53.468;9.826;2023-08-08T01:31:45;15.10;99.90
44166;DHT22;30476;53.468;9.826;2023-08-08T01:34:11;15.10;99.90
44166;DHT22;30476;53.468;9.826;2023-08-08T01:39:16;15.10;99.90
44166;DHT22;30476;53.468;9.826;2023-08-08T01:41:43;15.10;99.90
44166;DHT22;30476;53.468;9.826;2023-08-08T01:44:10;15.10;99.90
44166;DHT22;30476;53.468;9.826;2023-08-08T01:46:36;15.10;99.90
44166;DHT22;30476;53.468;9.826;2023-08-08T01:49:04;15.00;99.90
44166;DHT22;30476;53.468;9.826;2023-08-08T01:51:29;15.00;99.90
44166;DHT22;30476;53.468;9.826;2023-08-08T01:53:55;15.00;99.90
44166;DHT22;30476;53.468;9.826;2023-08-08T01:56:21;15.00;99.90
44166;DHT22;30476;53.468;9.826;2023-08-08T01:58:47;15.00;99.90
44166;DHT22;30476;53.468;9.826;2023-08-08T02:01:13;14.90;99.90
44166;DHT22;30476;53.468;9.826;2023-08-08T02:03:39;14.90;99.90
44166;DHT22;30476;53.468;9.826;2023-08-08T02:06:04;14.90;99.90
44166;DHT22;30476;53.468;9.826;2023-08-08T02:08:30;14.90;99.90
44166;DHT22;30476;53.468;9.826;2023-08-08T02:10:56;14.80;99.90
44166;DHT22;30476;53.468;9.826;2023-08-08T02:13:22;14.90;99.90
44166;DHT22;30476;53.468;9.826;2023-08-08T02:15:48;14.80;99.90
44166;DHT22;30476;53.468;9.826;2023-08-08T02:18:13;14.80;99.90
44166;DHT22;30476;53.468;9.826;2023-08-08T02:20:39;14.80;99.90
44166;DHT22;30476;53.468;9.826;2023-08-08T02:23:05;14.80;99.90
44166;DHT22;30476;53.468;9.826;2023-08-08T02:25:31;14.80;99.90
44166;DHT22;30476;53.468;9.826;2023-08-08T02:27:57;14.90;99.90
44166;DHT22;30476;53.468;9.826;2023-08-08T02:30:23;14.90;99.90
44166;DHT22;30476;53.468;9.826;2023-08-08T02:32:49;14.90;99.90
44166;DHT22;30476;53.468;9.826;2023-08-08T02:35:14;14.80;99.90
44166;DHT22;30476;53.468;9.826;2023-08-08T02:37:40;14.80;99.90
44166;DHT22;30476;53.468;9.826;2023-08-08T02:40:06;14.80;99.90
44166;DHT22;30476;53.468;9.826;2023-08-08T02:42:33;14.80;99.90
44166;DHT22;30476;53.468;9.826;2023-08-08T02:44:59;14.80;99.90
44166;DHT22;30476;53.468;9.826;2023-08-08T02:47:25;14.80;99.90
44166;DHT22;30476;53.468;9.826;2023-08-08T02:49:50;14.80;99.90
44166;DHT22;30476;53.468;9.826;2023-08-08T02:52:16;14.80;99.90
44166;DHT22;30476;53.468;9.826;2023-08-08T02:54:42;14.70;99.90
44166;DHT22;30476;53.468;9.826;2023-08-08T02:57:08;14.70;99.90
44166;DHT22;30476;53.468;9.826;2023-08-08T02:59:36;14.70;99.90
44166;DHT22;30476;53.468;9.826;2023-08-08T03:02:02;14.70;99.90
44166;DHT22;30476;53.468;9.826;2023-08-08T03:04:29;14.70;99.90
44166;DHT22;30476;53.468;9.826;2023-08-08T03:06:55;14.70;99.90
44166;DHT22;30476;53.468;9.826;2023-08-08T03:09:21;14.70;99.90
44166;DHT22;30476;53.468;9.826;2023-08-08T03:11:47;14.70;99.90
44166;DHT22;30476;53.468;9.826;2023-08-08T03:14:13;14.60;99.90
44166;DHT22;30476;53.468;9.826;2023-08-08T03:16:39;14.70;99.90
44166;DHT22;30476;53.468;9.826;2023-08-08T03:19:05;14.70;99.90
44166;DHT22;30476;53.468;9.826;2023-08-08T03:21:31;14.70;99.90
44166;DHT22;30476;53.468;9.826;2023-08-08T03:23:57;14.70;99.90
44166;DHT22;30476;53.468;9.826;2023-08-08T03:26:23;14.70;99.90
44166;DHT22;30476;53.468;9.826;2023-08-08T03:28:49;14.70;99.90
44166;DHT22;30476;53.468;9.826;2023-08-08T03:31:16;14.70;99.90
44166;DHT22;30476;53.468;9.826;2023-08-08T03:33:43;14.70;99.90
44166;DHT22;30476;53.468;9.826;2023-08-08T03:36:09;14.60;99.90
44166;DHT22;30476;53.468;9.826;2023-08-08T03:38:35;14.60;99.90
44166;DHT22;30476;53.468;9.826;2023-08-08T03:41:01;14.70;99.90
44166;DHT22;30476;53.468;9.826;2023-08-08T03:43:27;14.70;99.90
44166;DHT22;30476;53.468;9.826;2023-08-08T03:45:53;14.60;99.90
44166;DHT22;30476;53.468;9.826;2023-08-08T03:48:18;14.70;99.90
44166;DHT22;30476;53.468;9.826;2023-08-08T03:50:44;14.70;99.90
44166;DHT22;30476;53.468;9.826;2023-08-08T03:53:12;14.70;99.90
44166;DHT22;30476;53.468;9.826;2023-08-08T03:55:38;14.70;99.90
44166;DHT22;30476;53.468;9.826;2023-08-08T03:58:04;14.60;99.90
44166;DHT22;30476;53.468;9.826;2023-08-08T04:00:31;14.60;99.90
44166;DHT22;30476;53.468;9.826;2023-08-08T04:02:57;14.70;99.90
44166;DHT22;30476;53.468;9.826;2023-08-08T04:05:23;14.70;99.90
44166;DHT22;30476;53.468;9.826;2023-08-08T04:07:49;14.70;99.90
44166;DHT22;30476;53.468;9.826;2023-08-08T04:10:15;14.70;99.90
44166;DHT22;30476;53.468;9.826;2023-08-08T04:12:41;14.70;99.90
44166;DHT22;30476;53.468;9.826;2023-08-08T04:15:07;14.70;99.90
44166;DHT22;30476;53.468;9.826;2023-08-08T04:17:33;14.80;99.90
44166;DHT22;30476;53.468;9.826;2023-08-08T04:19:58;14.70;99.90
44166;DHT22;30476;53.468;9.826;2023-08-08T04:22:24;14.70;99.90
44166;DHT22;30476;53.468;9.826;2023-08-08T04:24:50;14.70;99.90
44166;DHT22;30476;53.468;9.826;2023-08-08T04:27:16;14.70;99.90
44166;DHT22;30476;53.468;9.826;2023-08-08T04:29:42;14.70;99.90
44166;DHT22;30476;53.468;9.826;2023-08-08T04:32:07;14.70;99.90
44166;DHT22;30476;53.468;9.826;2023-08-08T04:34:33;14.70;99.90
44166;DHT22;30476;53.468;9.826;2023-08-08T04:36:59;14.80;99.90
44166;DHT22;30476;53.468;9.826;2023-08-08T04:39:25;14.70;99.90
44166;DHT22;30476;53.468;9.826;2023-08-08T04:41:51;14.70;99.90
44166;DHT22;30476;53.468;9.826;2023-08-08T04:44:17;14.70;99.90
44166;DHT22;30476;53.468;9.826;2023-08-08T04:46:43;14.70;99.90
44166;DHT22;30476;53.468;9.826;2023-08-08T04:49:09;14.80;99.90
44166;DHT22;30476;53.468;9.826;2023-08-08T04:51:34;14.80;99.90
44166;DHT22;30476;53.468;9.826;2023-08-08T04:54:00;14.80;99.90
44166;DHT22;30476;53.468;9.826;2023-08-08T04:56:26;14.80;99.90
44166;DHT22;30476;53.468;9.826;2023-08-08T04:58:52;14.80;99.90
44166;DHT22;30476;53.468;9.826;2023-08-08T05:01:17;14.80;99.90
44166;DHT22;30476;53.468;9.826;2023-08-08T05:03:46;14.90;99.90
44166;DHT22;30476;53.468;9.826;2023-08-08T05:06:12;14.80;99.90
44166;DHT22;30476;53.468;9.826;2023-08-08T05:08:37;14.80;99.90
44166;DHT22;30476;53.468;9.826;2023-08-08T05:11:03;14.90;99.90
44166;DHT22;30476;53.468;9.826;2023-08-08T05:13:29;14.90;99.90
44166;DHT22;30476;53.468;9.826;2023-08-08T05:15:55;14.90;99.90
44166;DHT22;30476;53.468;9.826;2023-08-08T05:18:20;15.00;99.90
44166;DHT22;30476;53.468;9.826;2023-08-08T05:20:46;15.00;99.90
44166;DHT22;30476;53.468;9.826;2023-08-08T05:23:12;15.00;99.90
44166;DHT22;30476;53.468;9.826;2023-08-08T05:25:38;15.00;99.90
44166;DHT22;30476;53.468;9.826;2023-08-08T05:28:04;15.10;99.90
44166;DHT22;30476;53.468;9.826;2023-08-08T05:30:29;15.10;99.90
44166;DHT22;30476;53.468;9.826;2023-08-08T05:32:55;15.10;99.90
44166;DHT22;30476;53.468;9.826;2023-08-08T05:35:21;15.20;99.90
44166;DHT22;30476;53.468;9.826;2023-08-08T05:37:47;15.20;99.90
44166;DHT22;30476;53.468;9.826;2023-08-08T05:40:12;15.20;99.90
44166;DHT22;30476;53.468;9.826;2023-08-08T05:42:39;15.30;99.90
44166;DHT22;30476;53.468;9.826;2023-08-08T05:45:05;15.40;99.90
44166;DHT22;30476;53.468;9.826;2023-08-08T05:47:32;15.40;99.90
44166;DHT22;30476;53.468;9.826;2023-08-08T05:49:57;15.40;99.90
44166;DHT22;30476;53.468;9.826;2023-08-08T05:52:23;15.40;99.90
44166;DHT22;30476;53.468;9.826;2023-08-08T05:54:49;15.40;99.90
44166;DHT22;30476;53.468;9.826;2023-08-08T05:57:15;15.50;99.90
44166;DHT22;30476;53.468;9.826;2023-08-08T05:59:40;15.50;99.90
44166;DHT22;30476;53.468;9.826;2023-08-08T06:02:06;15.50;99.90
44166;DHT22;30476;53.468;9.826;2023-08-08T06:04:32;15.60;99.90
44166;DHT22;30476;53.468;9.826;2023-08-08T06:06:58;15.60;99.90
44166;DHT22;30476;53.468;9.826;2023-08-08T06:09:24;15.70;99.90
44166;DHT22;30476;53.468;9.826;2023-08-08T06:11:50;15.70;99.90
44166;DHT22;30476;53.468;9.826;2023-08-08T06:14:16;15.70;99.90
44166;DHT22;30476;53.468;9.826;2023-08-08T06:16:43;15.70;99.90
44166;DHT22;30476;53.468;9.826;2023-08-08T06:19:08;15.70;99.90
44166;DHT22;30476;53.468;9.826;2023-08-08T06:21:36;15.70;99.90
44166;DHT22;30476;53.468;9.826;2023-08-08T06:24:01;15.70;99.90
44166;DHT22;30476;53.468;9.826;2023-08-08T06:26:27;15.80;99.90
44166;DHT22;30476;53.468;9.826;2023-08-08T06:28:53;15.70;99.90
44166;DHT22;30476;53.468;9.826;2023-08-08T06:31:19;15.80;99.90
44166;DHT22;30476;53.468;9.826;2023-08-08T06:33:45;15.90;99.90
44166;DHT22;30476;53.468;9.826;2023-08-08T06:36:10;15.90;99.90
44166;DHT22;30476;53.468;9.826;2023-08-08T06:38:36;16.00;99.90
44166;DHT22;30476;53.468;9.826;2023-08-08T06:41:05;16.00;99.90
44166;DHT22;30476;53.468;9.826;2023-08-08T06:43:31;16.10;99.90
44166;DHT22;30476;53.468;9.826;2023-08-08T06:45:57;16.20;99.90
44166;DHT22;30476;53.468;9.826;2023-08-08T06:48:23;16.10;99.90
44166;DHT22;30476;53.468;9.826;2023-08-08T06:50:48;16.10;99.90
44166;DHT22;30476;53.468;9.826;2023-08-08T06:53:14;16.20;99.90
44166;DHT22;30476;53.468;9.826;2023-08-08T06:55:41;16.30;99.90
44166;DHT22;30476;53.468;9.826;2023-08-08T06:58:07;16.40;99.90
44166;DHT22;30476;53.468;9.826;2023-08-08T07:00:32;16.50;99.90
44166;DHT22;30476;53.468;9.826;2023-08-08T07:02:58;16.60;99.90
44166;DHT22;30476;53.468;9.826;2023-08-08T07:05:24;16.70;99.90
44166;DHT22;30476;53.468;9.826;2023-08-08T07:07:50;16.70;99.90
44166;DHT22;30476;53.468;9.826;2023-08-08T07:10:16;16.80;99.90
44166;DHT22;30476;53.468;9.826;2023-08-08T07:12:42;16.80;99.90
44166;DHT22;30476;53.468;9.826;2023-08-08T07:15:09;16.90;99.90
44166;DHT22;30476;53.468;9.826;2023-08-08T07:17:35;16.90;99.90
44166;DHT22;30476;53.468;9.826;2023-08-08T07:20:01;17.00;99.90
44166;DHT22;30476;53.468;9.826;2023-08-08T07:22:28;17.00;99.90
44166;DHT22;30476;53.468;9.826;2023-08-08T07:24:53;17.10;99.90
44166;DHT22;30476;53.468;9.826;2023-08-08T07:27:19;17.20;99.90
44166;DHT22;30476;53.468;9.826;2023-08-08T07:29:44;17.20;99.90
44166;DHT22;30476;53.468;9.826;2023-08-08T07:32:10;17.30;99.90
44166;DHT22;30476;53.468;9.826;2023-08-08T07:34:36;17.40;99.90
44166;DHT22;30476;53.468;9.826;2023-08-08T07:37:02;17.40;99.90
44166;DHT22;30476;53.468;9.826;2023-08-08T07:39:28;17.50;99.90
44166;DHT22;30476;53.468;9.826;2023-08-08T07:41:54;17.60;99.90
44166;DHT22;30476;53.468;9.826;2023-08-08T07:44:20;17.60;99.90
44166;DHT22;30476;53.468;9.826;2023-08-08T07:46:46;17.70;99.90
44166;DHT22;30476;53.468;9.826;2023-08-08T07:49:12;17.80;99.90
44166;DHT22;30476;53.468;9.826;2023-08-08T07:51:37;17.90;99.90
44166;DHT22;30476;53.468;9.826;2023-08-08T07:54:03;17.90;99.90
44166;DHT22;30476;53.468;9.826;2023-08-08T07:56:33;17.90;99.90
44166;DHT22;30476;53.468;9.826;2023-08-08T07:58:59;18.00;99.90
44166;DHT22;30476;53.468;9.826;2023-08-08T08:01:25;18.00;99.90
44166;DHT22;30476;53.468;9.826;2023-08-08T08:03:52;18.00;99.90
44166;DHT22;30476;53.468;9.826;2023-08-08T08:06:18;18.00;99.90
44166;DHT22;30476;53.468;9.826;2023-08-08T08:08:44;17.90;99.90
44166;DHT22;30476;53.468;9.826;2023-08-08T08:11:10;18.00;99.90
44166;DHT22;30476;53.468;9.826;2023-08-08T08:13:36;18.00;99.90
44166;DHT22;30476;53.468;9.826;2023-08-08T08:16:02;18.00;99.90
44166;DHT22;30476;53.468;9.826;2023-08-08T08:18:28;18.00;99.90
44166;DHT22;30476;53.468;9.826;2023-08-08T08:20:54;17.90;99.90
44166;DHT22;30476;53.468;9.826;2023-08-08T08:23:20;17.90;99.90
44166;DHT22;30476;53.468;9.826;2023-08-08T08:25:46;17.80;99.90
44166;DHT22;30476;53.468;9.826;2023-08-08T08:28:12;17.80;99.90
44166;DHT22;30476;53.468;9.826;2023-08-08T08:30:38;17.80;99.90
44166;DHT22;30476;53.468;9.826;2023-08-08T08:33:04;17.80;99.90
44166;DHT22;30476;53.468;9.826;2023-08-08T08:35:33;17.80;99.90
44166;DHT22;30476;53.468;9.826;2023-08-08T08:37:59;17.80;99.90
44166;DHT22;30476;53.468;9.826;2023-08-08T08:40:25;17.70;99.90
44166;DHT22;30476;53.468;9.826;2023-08-08T08:42:52;17.80;99.90
44166;DHT22;30476;53.468;9.826;2023-08-08T08:45:20;17.80;99.90
44166;DHT22;30476;53.468;9.826;2023-08-08T08:47:47;17.80;99.90
44166;DHT22;30476;53.468;9.826;2023-08-08T08:50:15;17.80;99.90
44166;DHT22;30476;53.468;9.826;2023-08-08T08:52:43;17.80;99.90
44166;DHT22;30476;53.468;9.826;2023-08-08T08:55:09;17.90;99.90
44166;DHT22;30476;53.468;9.826;2023-08-08T08:57:36;17.90;99.90
44166;DHT22;30476;53.468;9.826;2023-08-08T09:00:02;17.90;99.90
44166;DHT22;30476;53.468;9.826;2023-08-08T09:02:28;18.00;99.90
44166;DHT22;30476;53.468;9.826;2023-08-08T09:04:55;18.00;99.90
44166;DHT22;30476;53.468;9.826;2023-08-08T09:07:23;18.00;99.90
44166;DHT22;30476;53.468;9.826;2023-08-08T09:09:52;18.00;99.90
44166;DHT22;30476;53.468;9.826;2023-08-08T09:12:18;18.00;99.90
44166;DHT22;30476;53.468;9.826;2023-08-08T09:14:44;18.00;99.90
44166;DHT22;30476;53.468;9.826;2023-08-08T09:17:11;18.10;99.90
44166;DHT22;30476;53.468;9.826;2023-08-08T09:19:38;18.10;99.90
44166;DHT22;30476;53.468;9.826;2023-08-08T09:22:04;18.10;99.90
44166;DHT22;30476;53.468;9.826;2023-08-08T09:24:30;18.10;99.90
44166;DHT22;30476;53.468;9.826;2023-08-08T09:26:56;18.10;99.90
44166;DHT22;30476;53.468;9.826;2023-08-08T09:29:22;18.10;99.90
44166;DHT22;30476;53.468;9.826;2023-08-08T09:31:47;18.10;99.90
44166;DHT22;30476;53.468;9.826;2023-08-08T09:34:13;18.10;99.90
44166;DHT22;30476;53.468;9.826;2023-08-08T09:36:40;18.00;99.90
44166;DHT22;30476;53.468;9.826;2023-08-08T09:39:06;18.00;99.90
44166;DHT22;30476;53.468;9.826;2023-08-08T09:41:32;18.10;99.90
44166;DHT22;30476;53.468;9.826;2023-08-08T09:43:59;18.00;99.90
44166;DHT22;30476;53.468;9.826;2023-08-08T09:46:25;18.00;99.90
44166;DHT22;30476;53.468;9.826;2023-08-08T09:48:51;17.90;99.90
44166;DHT22;30476;53.468;9.826;2023-08-08T09:51:18;17.90;99.90
44166;DHT22;30476;53.468;9.826;2023-08-08T09:53:46;17.90;99.90
44166;DHT22;30476;53.468;9.826;2023-08-08T09:56:14;17.90;99.90
44166;DHT22;30476;53.468;9.826;2023-08-08T09:58:40;17.70;99.90
44166;DHT22;30476;53.468;9.826;2023-08-08T10:01:07;17.60;99.90
44166;DHT22;30476;53.468;9.826;2023-08-08T10:03:34;17.60;99.90
44166;DHT22;30476;53.468;9.826;2023-08-08T10:06:02;17.50;99.90
44166;DHT22;30476;53.468;9.826;2023-08-08T10:08:28;17.50;99.90
44166;DHT22;30476;53.468;9.826;2023-08-08T10:10:55;17.40;99.90
44166;DHT22;30476;53.468;9.826;2023-08-08T10:13:26;17.40;99.90
44166;DHT22;30476;53.468;9.826;2023-08-08T10:15:53;17.30;99.90
44166;DHT22;30476;53.468;9.826;2023-08-08T10:18:23;17.30;99.90
44166;DHT22;30476;53.468;9.826;2023-08-08T10:20:50;17.30;99.90
44166;DHT22;30476;53.468;9.826;2023-08-08T10:23:18;17.30;99.90
44166;DHT22;30476;53.468;9.826;2023-08-08T10:25:48;17.30;99.90
44166;DHT22;30476;53.468;9.826;2023-08-08T10:28:19;17.20;99.90
44166;DHT22;30476;53.468;9.826;2023-08-08T10:33:28;17.20;99.90
44166;DHT22;30476;53.468;9.826;2023-08-08T10:36:05;17.30;99.90
44166;DHT22;30476;53.468;9.826;2023-08-08T10:39:01;17.40;99.90
44166;DHT22;30476;53.468;9.826;2023-08-08T10:41:27;17.50;99.90
44166;DHT22;30476;53.468;9.826;2023-08-08T10:43:57;17.70;99.90
44166;DHT22;30476;53.468;9.826;2023-08-08T10:46:31;17.80;99.90
44166;DHT22;30476;53.468;9.826;2023-08-08T10:49:01;17.90;99.90
44166;DHT22;30476;53.468;9.826;2023-08-08T10:51:36;17.90;99.90
44166;DHT22;30476;53.468;9.826;2023-08-08T10:54:06;18.00;99.90
44166;DHT22;30476;53.468;9.826;2023-08-08T10:56:35;18.10;99.90
44166;DHT22;30476;53.468;9.826;2023-08-08T10:59:13;18.10;99.90
44166;DHT22;30476;53.468;9.826;2023-08-08T11:01:40;18.20;99.90
44166;DHT22;30476;53.468;9.826;2023-08-08T11:04:06;18.20;99.90
44166;DHT22;30476;53.468;9.826;2023-08-08T11:06:32;18.10;99.90
44166;DHT22;30476;53.468;9.826;2023-08-08T11:09:00;18.10;99.90
44166;DHT22;30476;53.468;9.826;2023-08-08T11:11:26;18.00;99.90
44166;DHT22;30476;53.468;9.826;2023-08-08T11:13:52;18.00;99.90
44166;DHT22;30476;53.468;9.826;2023-08-08T11:16:18;17.90;99.90
44166;DHT22;30476;53.468;9.826;2023-08-08T11:18:45;17.80;99.90
44166;DHT22;30476;53.468;9.826;2023-08-08T11:21:11;17.70;99.90
44166;DHT22;30476;53.468;9.826;2023-08-08T11:23:38;17.60;99.90
44166;DHT22;30476;53.468;9.826;2023-08-08T11:26:04;17.50;99.90
44166;DHT22;30476;53.468;9.826;2023-08-08T11:28:30;17.40;99.90
44166;DHT22;30476;53.468;9.826;2023-08-08T11:30:56;17.30;99.90
44166;DHT22;30476;53.468;9.826;2023-08-08T11:33:22;17.20;99.90
44166;DHT22;30476;53.468;9.826;2023-08-08T11:35:47;17.20;99.90
44166;DHT22;30476;53.468;9.826;2023-08-08T11:38:15;17.20;99.90
44166;DHT22;30476;53.468;9.826;2023-08-08T11:40:41;17.10;99.90
44166;DHT22;30476;53.468;9.826;2023-08-08T11:43:08;17.00;99.90
44166;DHT22;30476;53.468;9.826;2023-08-08T11:45:34;16.90;99.90
44166;DHT22;30476;53.468;9.826;2023-08-08T11:48:00;16.80;99.90
44166;DHT22;30476;53.468;9.826;2023-08-08T11:50:27;16.80;99.90
44166;DHT22;30476;53.468;9.826;2023-08-08T11:52:54;16.70;99.90
44166;DHT22;30476;53.468;9.826;2023-08-08T11:55:20;16.70;99.90
44166;DHT22;30476;53.468;9.826;2023-08-08T11:57:48;16.80;99.90
44166;DHT22;30476;53.468;9.826;2023-08-08T12:00:15;17.00;99.90
44166;DHT22;30476;53.468;9.826;2023-08-08T12:02:45;17.10;99.90
44166;DHT22;30476;53.468;9.826;2023-08-08T12:05:14;17.20;99.90
44166;DHT22;30476;53.468;9.826;2023-08-08T12:07:43;17.30;99.90
44166;DHT22;30476;53.468;9.826;2023-08-08T12:10:19;17.30;99.90
44166;DHT22;30476;53.468;9.826;2023-08-08T12:12:46;17.40;99.90
44166;DHT22;30476;53.468;9.826;2023-08-08T12:15:13;17.30;99.90
44166;DHT22;30476;53.468;9.826;2023-08-08T12:17:39;17.30;99.90
44166;DHT22;30476;53.468;9.826;2023-08-08T12:20:07;17.30;99.90
44166;DHT22;30476;53.468;9.826;2023-08-08T12:22:33;17.20;99.90
44166;DHT22;30476;53.468;9.826;2023-08-08T12:25:00;17.20;99.90
44166;DHT22;30476;53.468;9.826;2023-08-08T12:27:26;17.20;99.90
44166;DHT22;30476;53.468;9.826;2023-08-08T12:29:51;17.30;99.90
44166;DHT22;30476;53.468;9.826;2023-08-08T12:32:20;17.40;99.90
44166;DHT22;30476;53.468;9.826;2023-08-08T12:34:49;17.60;99.90
44166;DHT22;30476;53.468;9.826;2023-08-08T12:37:15;17.90;99.90
44166;DHT22;30476;53.468;9.826;2023-08-08T12:39:41;18.10;99.90
44166;DHT22;30476;53.468;9.826;2023-08-08T12:42:07;18.50;99.90
44166;DHT22;30476;53.468;9.826;2023-08-08T12:44:33;18.70;99.90
44166;DHT22;30476;53.468;9.826;2023-08-08T12:46:59;19.00;99.90
44166;DHT22;30476;53.468;9.826;2023-08-08T12:49:24;19.20;99.90
44166;DHT22;30476;53.468;9.826;2023-08-08T12:51:51;19.50;99.90
44166;DHT22;30476;53.468;9.826;2023-08-08T12:54:17;19.80;99.90
44166;DHT22;30476;53.468;9.826;2023-08-08T12:56:43;20.10;99.90
44166;DHT22;30476;53.468;9.826;2023-08-08T12:59:09;20.40;99.90
44166;DHT22;30476;53.468;9.826;2023-08-08T13:01:35;20.70;99.90
44166;DHT22;30476;53.468;9.826;2023-08-08T13:04:01;20.80;99.90
44166;DHT22;30476;53.468;9.826;2023-08-08T13:06:26;20.90;99.90
44166;DHT22;30476;53.468;9.826;2023-08-08T13:08:52;20.90;99.90
44166;DHT22;30476;53.468;9.826;2023-08-08T13:11:18;20.90;99.90
44166;DHT22;30476;53.468;9.826;2023-08-08T13:13:44;20.80;99.90
44166;DHT22;30476;53.468;9.826;2023-08-08T13:16:10;20.60;99.90
44166;DHT22;30476;53.468;9.826;2023-08-08T13:18:36;20.50;99.90
44166;DHT22;30476;53.468;9.826;2023-08-08T13:21:02;20.30;99.90
44166;DHT22;30476;53.468;9.826;2023-08-08T13:23:28;20.20;99.90
44166;DHT22;30476;53.468;9.826;2023-08-08T13:25:54;20.00;99.90
44166;DHT22;30476;53.468;9.826;2023-08-08T13:28:20;19.90;99.90
44166;DHT22;30476;53.468;9.826;2023-08-08T13:30:45;19.80;99.90
44166;DHT22;30476;53.468;9.826;2023-08-08T13:33:11;19.80;99.90
44166;DHT22;30476;53.468;9.826;2023-08-08T13:35:37;19.70;99.90
44166;DHT22;30476;53.468;9.826;2023-08-08T13:38:03;19.80;99.90
44166;DHT22;30476;53.468;9.826;2023-08-08T13:40:28;19.90;99.90
44166;DHT22;30476;53.468;9.826;2023-08-08T13:42:54;20.10;99.90
44166;DHT22;30476;53.468;9.826;2023-08-08T13:45:20;20.30;99.90
44166;DHT22;30476;53.468;9.826;2023-08-08T13:47:47;20.40;99.90
44166;DHT22;30476;53.468;9.826;2023-08-08T13:50:16;20.50;99.90
44166;DHT22;30476;53.468;9.826;2023-08-08T13:52:42;20.70;99.90
44166;DHT22;30476;53.468;9.826;2023-08-08T13:55:08;20.80;99.90
44166;DHT22;30476;53.468;9.826;2023-08-08T13:57:35;20.70;99.90
44166;DHT22;30476;53.468;9.826;2023-08-08T14:00:01;20.40;99.90
44166;DHT22;30476;53.468;9.826;2023-08-08T14:02:28;20.20;99.90
44166;DHT22;30476;53.468;9.826;2023-08-08T14:04:55;19.90;99.90
44166;DHT22;30476;53.468;9.826;2023-08-08T14:07:21;19.70;99.90
44166;DHT22;30476;53.468;9.826;2023-08-08T14:09:47;19.40;99.90
44166;DHT22;30476;53.468;9.826;2023-08-08T14:12:13;19.30;99.90
44166;DHT22;30476;53.468;9.826;2023-08-08T14:14:38;19.20;99.90
44166;DHT22;30476;53.468;9.826;2023-08-08T14:17:04;19.00;99.90
44166;DHT22;30476;53.468;9.826;2023-08-08T14:19:31;18.80;99.90
44166;DHT22;30476;53.468;9.826;2023-08-08T14:21:56;18.80;99.90
44166;DHT22;30476;53.468;9.826;2023-08-08T14:24:22;18.70;99.90
44166;DHT22;30476;53.468;9.826;2023-08-08T14:26:48;18.50;99.90
44166;DHT22;30476;53.468;9.826;2023-08-08T14:29:13;18.40;99.90
44166;DHT22;30476;53.468;9.826;2023-08-08T14:31:39;18.30;99.90
44166;DHT22;30476;53.468;9.826;2023-08-08T14:34:05;18.30;99.90
44166;DHT22;30476;53.468;9.826;2023-08-08T14:36:31;18.20;99.90
44166;DHT22;30476;53.468;9.826;2023-08-08T14:38:56;18.10;99.90
44166;DHT22;30476;53.468;9.826;2023-08-08T14:41:22;18.00;99.90
44166;DHT22;30476;53.468;9.826;2023-08-08T14:43:48;18.00;99.90
44166;DHT22;30476;53.468;9.826;2023-08-08T14:46:14;17.90;99.90
44166;DHT22;30476;53.468;9.826;2023-08-08T14:48:40;17.90;99.90
44166;DHT22;30476;53.468;9.826;2023-08-08T14:51:06;17.90;99.90
44166;DHT22;30476;53.468;9.826;2023-08-08T14:53:31;17.90;99.90
44166;DHT22;30476;53.468;9.826;2023-08-08T14:55:57;17.90;99.90
44166;DHT22;30476;53.468;9.826;2023-08-08T14:58:23;17.90;99.90
44166;DHT22;30476;53.468;9.826;2023-08-08T15:00:49;17.90;99.90
44166;DHT22;30476;53.468;9.826;2023-08-08T15:03:14;17.90;99.90
44166;DHT22;30476;53.468;9.826;2023-08-08T15:05:40;17.90;99.90
44166;DHT22;30476;53.468;9.826;2023-08-08T15:08:07;17.90;99.90
44166;DHT22;30476;53.468;9.826;2023-08-08T15:10:35;17.90;99.90
44166;DHT22;30476;53.468;9.826;2023-08-08T15:13:01;18.00;99.90
44166;DHT22;30476;53.468;9.826;2023-08-08T15:15:26;18.10;99.90
44166;DHT22;30476;53.468;9.826;2023-08-08T15:17:53;18.10;99.90
44166;DHT22;30476;53.468;9.826;2023-08-08T15:20:19;18.20;99.90
44166;DHT22;30476;53.468;9.826;2023-08-08T15:22:45;18.20;99.90
44166;DHT22;30476;53.468;9.826;2023-08-08T15:25:11;18.20;99.90
44166;DHT22;30476;53.468;9.826;2023-08-08T15:27:36;18.30;99.90
44166;DHT22;30476;53.468;9.826;2023-08-08T15:30:03;18.30;99.90